Time;durP1;ratioP1;P1;durP2;ratioP2;P2;SDS_P1;SDS_P2;PMS_P1;PMS_P2;Temp;Humidity;BMP_temperature;BMP_pressure;BME280_temperature;BME280_humidity;BME280_pressure;Samples;Min_cycle;Max_cycle;Signal;HPM_P1;HPM_P2
2022/08/27 00:10:16;;;;;;;7.22;3.90;;;;;;;24.37;92.76;99843.19;4891822;23;20054;-92
2022/08/27 00:16:12;;;;;;;11.38;3.90;;;;;;;24.41;93.28;99854.31;5128141;23;20050;-90
2022/08/27 00:19:26;;;;;;;7.78;3.42;;;;;;;24.33;93.80;99852.94;4978160;28;20085;-90
2022/08/27 00:33:34;;;;;;;11.13;4.07;;;;;;;23.84;99.21;99844.38;1074660;23;20370;-90
2022/08/27 00:37:24;;;;;;;8.38;4.22;;;;;;;23.75;100.00;99845.97;3704950;23;20109;-90
2022/08/27 00:39:54;;;;;;;8.73;4.13;;;;;;;23.77;100.00;99846.50;4997282;28;20065;-89
2022/08/27 00:43:49;;;;;;;11.57;4.90;;;;;;;23.78;100.00;99840.03;4984058;28;20133;-90
2022/08/27 00:46:33;;;;;;;;;;;;;;;23.72;100.00;99830.28;4958743;29;20055;-87
2022/08/27 00:55:20;;;;;;;8.88;3.97;;;;;;;23.76;100.00;99836.78;4502155;23;20062;-88
2022/08/27 00:58:16;;;;;;;10.18;4.47;;;;;;;23.78;100.00;99834.63;4989915;28;20046;-88
2022/08/27 01:01:10;;;;;;;5.72;4.10;;;;;;;23.78;100.00;99834.63;5012997;28;20042;-87
2022/08/27 01:04:09;;;;;;;9.27;4.10;;;;;;;23.74;100.00;99827.28;5165366;23;20025;-87
2022/08/27 01:06:46;;;;;;;6.32;3.90;;;;;;;23.74;100.00;99832.69;4998248;28;20065;-88
2022/08/27 01:10:24;;;;;;;5.95;4.10;;;;;;;23.74;100.00;99830.00;5002635;28;20054;-88
2022/08/27 01:13:11;;;;;;;5.80;4.00;;;;;;;23.88;100.00;99833.84;5332183;23;20039;-90
2022/08/27 01:16:00;;;;;;;8.80;4.30;;;;;;;23.94;99.97;99833.59;4988587;28;20058;-87
2022/08/27 01:18:38;;;;;;;12.68;4.40;;;;;;;24.02;99.03;99835.78;5013765;28;20027;-88
2022/08/27 01:21:30;;;;;;;5.78;3.70;;;;;;;23.98;100.00;99831.97;4996670;28;20049;-89
2022/08/27 01:27:45;;;;;;;9.02;4.10;;;;;;;23.77;100.00;99837.56;5009871;28;20046;-88
2022/08/27 01:30:46;;;;;;;8.93;4.13;;;;;;;23.69;100.00;99838.91;5051974;23;20068;-86
2022/08/27 01:33:21;;;;;;;10.18;4.60;;;;;;;23.75;100.00;99835.16;5006876;28;20053;-86
2022/08/27 01:35:53;;;;;;;7.82;3.97;;;;;;;23.75;100.00;99839.75;5015090;28;20050;-84
2022/08/27 01:38:28;;;;;;;10.25;4.50;;;;;;;23.75;100.00;99840.56;5016041;28;20030;-85
2022/08/27 01:41:01;;;;;;;5.47;4.07;;;;;;;23.74;100.00;99838.94;5016713;28;20061;-86
2022/08/27 01:43:30;;;;;;;7.47;4.70;;;;;;;23.69;100.00;99841.63;5000237;28;20039;-84
2022/08/27 01:45:58;;;;;;;6.82;4.90;;;;;;;23.77;100.00;99835.69;4963595;28;20054;-84
2022/08/27 01:48:46;;;;;;;10.30;4.20;;;;;;;23.84;100.00;99838.97;4995319;28;20042;-85
2022/08/27 01:51:22;;;;;;;6.43;4.25;;;;;;;23.61;100.00;99834.00;4983592;28;20061;-85
2022/08/27 01:53:51;;;;;;;9.10;4.68;;;;;;;23.60;100.00;99843.19;4955506;28;20117;-85
2022/08/27 01:56:17;;;;;;;12.23;4.15;;;;;;;23.58;100.00;99850.75;4963205;28;20042;-88
2022/08/27 01:58:52;;;;;;;5.70;4.45;;;;;;;23.53;100.00;99845.34;4940754;28;20050;-85
2022/08/27 02:01:22;;;;;;;6.63;3.75;;;;;;;23.48;100.00;99850.72;4978265;28;20042;-83
2022/08/27 02:04:03;;;;;;;7.93;4.38;;;;;;;23.42;100.00;99847.19;5012497;28;20050;-83
2022/08/27 02:06:32;;;;;;;12.38;4.57;;;;;;;23.36;100.00;99839.25;5014087;28;20042;-86
2022/08/27 02:09:01;;;;;;;9.18;4.00;;;;;;;23.46;100.00;99850.16;5007951;28;20034;-85
2022/08/27 02:11:34;;;;;;;7.47;3.85;;;;;;;23.61;100.00;99845.66;5007098;28;20057;-86
2022/08/27 02:14:06;;;;;;;7.45;4.55;;;;;;;23.47;100.00;99849.88;4991941;28;20047;-87
2022/08/27 02:16:44;;;;;;;8.13;4.43;;;;;;;23.41;100.00;99855.53;4977196;28;20071;-86
2022/08/27 02:19:15;;;;;;;7.90;3.80;;;;;;;23.41;100.00;99856.34;4993811;28;20049;-84
2022/08/27 02:21:51;;;;;;;7.97;4.20;;;;;;;23.36;100.00;99858.19;4960291;28;20042;-87
2022/08/27 02:24:57;;;;;;;7.78;3.70;;;;;;;23.38;100.00;99861.44;4994083;28;20053;-85
2022/08/27 02:27:27;;;;;;;7.97;4.00;;;;;;;23.49;100.00;99860.47;4977489;28;20043;-83
2022/08/27 02:29:57;;;;;;;8.10;4.25;;;;;;;23.51;100.00;99858.28;4975322;28;20058;-84
2022/08/27 02:32:49;;;;;;;5.88;4.30;;;;;;;23.60;100.00;99864.81;4966578;28;20046;-82
2022/08/27 02:35:43;;;;;;;6.55;4.57;;;;;;;23.51;100.00;99869.13;4996927;28;20053;-82
2022/08/27 02:38:18;;;;;;;5.82;4.28;;;;;;;23.59;100.00;99858.63;5007645;28;20046;-83
2022/08/27 02:40:48;;;;;;;10.43;4.47;;;;;;;23.63;100.00;99859.72;4994541;28;20046;-83
2022/08/27 02:43:17;;;;;;;6.95;4.63;;;;;;;23.62;100.00;99858.09;5020069;28;20038;-85
2022/08/27 02:45:47;;;;;;;10.23;4.97;;;;;;;23.69;100.00;99868.69;5003216;28;20022;-82
2022/08/27 02:48:45;;;;;;;9.85;4.53;;;;;;;23.71;100.00;99855.69;5020820;28;20030;-83
2022/08/27 02:51:24;;;;;;;7.60;4.40;;;;;;;23.79;100.00;99857.91;4981589;28;20047;-85
2022/08/27 02:53:54;;;;;;;9.07;4.63;;;;;;;23.71;100.00;99855.69;5014468;28;20022;-83
2022/08/27 02:56:24;;;;;;;11.30;4.82;;;;;;;23.66;100.00;99858.38;4995737;28;20057;-82
2022/08/27 02:58:54;;;;;;;6.47;4.53;;;;;;;23.52;100.00;99859.94;4993578;28;20061;-86
2022/08/27 03:01:27;;;;;;;9.63;5.20;;;;;;;23.42;100.00;99862.59;4971486;28;20480;-84
2022/08/27 03:04:18;;;;;;;11.70;5.38;;;;;;;23.29;100.00;99863.00;5012513;28;20039;-83
2022/08/27 03:06:55;;;;;;;10.07;4.65;;;;;;;23.33;100.00;99864.13;5012870;28;20094;-82
2022/08/27 03:09:22;;;;;;;8.27;5.10;;;;;;;23.34;100.00;99865.75;4996856;28;20062;-86
2022/08/27 03:11:50;;;;;;;9.25;5.00;;;;;;;23.49;100.00;99868.56;5012762;28;20046;-84
2022/08/27 03:14:22;;;;;;;13.15;4.97;;;;;;;23.61;100.00;99864.56;4998057;28;20031;-84
2022/08/27 03:16:53;;;;;;;10.07;5.50;;;;;;;23.59;100.00;99861.34;4997430;28;20029;-84
2022/08/27 03:19:21;;;;;;;7.65;6.07;;;;;;;23.55;100.00;99867.53;4999185;28;20039;-85
2022/08/27 03:21:53;;;;;;;12.02;5.68;;;;;;;23.54;100.00;99865.88;5014614;28;20391;-83
2022/08/27 03:24:29;;;;;;;8.13;5.70;;;;;;;23.70;100.00;99864.09;4999490;28;20057;-87
2022/08/27 03:27:25;;;;;;;15.40;5.72;;;;;;;23.71;100.00;99866.50;4978501;28;20054;-84
2022/08/27 03:29:58;;;;;;;13.02;6.15;;;;;;;23.60;100.00;99870.25;4988505;28;20039;-86
2022/08/27 03:32:28;;;;;;;10.60;6.22;;;;;;;23.45;100.00;99878.28;4999612;28;20073;-85
2022/08/27 03:34:59;;;;;;;10.52;5.82;;;;;;;23.25;100.00;99873.53;4996568;28;20045;-83
2022/08/27 03:37:27;;;;;;;14.07;5.43;;;;;;;23.14;100.00;99878.06;5013602;28;20034;-86
2022/08/27 03:40:04;;;;;;;10.60;4.82;;;;;;;23.12;100.00;99879.41;5013849;28;20034;-85
2022/08/27 03:42:33;;;;;;;9.10;4.45;;;;;;;23.10;100.00;99879.63;4996096;28;20038;-83
2022/08/27 03:45:18;;;;;;;20.08;6.15;;;;;;;23.11;100.00;99878.56;4995143;28;20038;-85
2022/08/27 03:48:02;;;;;;;11.40;5.07;;;;;;;23.13;100.00;99876.41;4995180;28;20022;-86
2022/08/27 03:50:39;;;;;;;10.38;4.85;;;;;;;23.21;100.00;99877.00;5012369;28;20030;-86
2022/08/27 03:53:20;;;;;;;9.90;4.88;;;;;;;23.20;100.00;99875.41;5007916;28;20057;-87
2022/08/27 03:55:52;;;;;;;7.47;4.93;;;;;;;23.20;100.00;99876.19;5011538;28;20046;-83
2022/08/27 03:58:29;;;;;;;17.90;5.07;;;;;;;23.13;100.00;99876.41;5011717;28;20104;-84
2022/08/27 04:01:02;;;;;;;9.60;5.10;;;;;;;23.09;100.00;99880.75;5013125;28;20034;-85
2022/08/27 04:03:37;;;;;;;10.15;5.15;;;;;;;23.10;100.00;99881.56;4996088;28;20031;-86
2022/08/27 04:06:15;;;;;;;9.65;5.32;;;;;;;23.10;100.00;99876.94;5008106;28;20049;-85
2022/08/27 04:08:50;;;;;;;8.45;5.32;;;;;;;23.10;100.00;99871.53;5012486;28;20061;-85
2022/08/27 04:11:17;;;;;;;13.27;6.05;;;;;;;23.14;100.00;99872.66;5012426;28;20027;-86
2022/08/27 04:13:59;;;;;;;12.82;7.20;;;;;;;23.20;100.00;99870.00;5013235;28;20029;-85
2022/08/27 04:16:28;;;;;;;15.80;7.43;;;;;;;23.12;100.00;99864.00;5007952;28;20047;-84
2022/08/27 04:18:57;;;;;;;16.50;7.88;;;;;;;23.21;100.00;99868.91;4980126;28;20042;-85
2022/08/27 04:21:24;;;;;;;14.45;8.88;;;;;;;23.08;100.00;99868.28;4979833;28;20046;-85
2022/08/27 04:23:59;;;;;;;12.43;8.07;;;;;;;23.06;100.00;99864.22;5006427;28;20104;-85
2022/08/27 04:26:27;;;;;;;13.95;9.00;;;;;;;23.12;100.00;99864.00;4979343;28;20053;-84
2022/08/27 04:28:54;;;;;;;12.32;8.40;;;;;;;22.94;100.00;99872.50;4993991;28;20104;-85
2022/08/27 04:31:34;;;;;;;12.70;9.13;;;;;;;22.88;100.00;99870.84;5011116;28;20114;-85
2022/08/27 04:34:10;;;;;;;12.82;8.75;;;;;;;22.90;100.00;99870.59;4993684;28;20065;-84
2022/08/27 04:36:38;;;;;;;13.85;8.40;;;;;;;22.95;100.00;99868.72;4995348;28;20573;-84
2022/08/27 04:39:04;;;;;;;14.05;8.45;;;;;;;22.81;100.00;99864.81;5011954;28;20034;-85
2022/08/27 04:41:33;;;;;;;13.13;7.70;;;;;;;22.86;100.00;99867.59;4995752;28;20042;-84
2022/08/27 04:44:15;;;;;;;15.43;6.97;;;;;;;22.93;100.00;99870.88;5011980;28;20062;-85
2022/08/27 04:46:56;;;;;;;10.90;7.13;;;;;;;23.09;100.00;99869.94;5012002;28;20045;-84
2022/08/27 04:49:54;;;;;;;11.52;6.43;;;;;;;23.16;100.00;99875.09;5011983;28;20078;-83
2022/08/27 04:52:35;;;;;;;11.52;6.63;;;;;;;22.82;100.00;99873.75;5007225;28;20031;-83
2022/08/27 04:55:20;;;;;;;12.07;6.85;;;;;;;22.77;100.00;99865.63;4977301;28;20054;-83
2022/08/27 04:57:58;;;;;;;11.07;6.65;;;;;;;22.86;100.00;99870.28;4996384;28;20046;-82
2022/08/27 05:00:49;;;;;;;15.10;7.43;;;;;;;22.92;100.00;99868.44;4996039;28;20037;-84
2022/08/27 05:03:22;;;;;;;14.70;7.57;;;;;;;22.93;100.00;99868.19;4980653;28;20030;-86
2022/08/27 05:05:51;;;;;;;10.40;7.25;;;;;;;22.97;100.00;99861.16;4980235;28;20053;-86
2022/08/27 05:08:21;;;;;;;10.95;7.22;;;;;;;23.09;100.00;99869.94;4995911;28;20029;-84
2022/08/27 05:10:51;;;;;;;13.23;7.30;;;;;;;23.03;100.00;99865.56;4979879;28;20031;-83
2022/08/27 05:13:27;;;;;;;10.45;6.90;;;;;;;22.90;100.00;99871.38;4949673;28;20121;-86
2022/08/27 05:16:23;;;;;;;17.33;6.82;;;;;;;22.84;100.00;99867.00;5008685;28;20062;-86
2022/08/27 05:19:17;;;;;;;12.10;7.20;;;;;;;22.91;100.00;99866.78;4994926;28;20054;-88
2022/08/27 05:21:52;;;;;;;18.05;7.25;;;;;;;23.03;100.00;99862.84;5012771;28;20046;-84
2022/08/27 05:24:23;;;;;;;17.52;7.00;;;;;;;22.92;100.00;99863.84;5013706;28;20018;-85
2022/08/27 05:26:52;;;;;;;14.02;6.68;;;;;;;22.89;100.00;99863.53;4980162;28;20046;-83
2022/08/27 05:29:23;;;;;;;14.95;7.82;;;;;;;22.87;100.00;99850.28;4980753;28;20060;-84
2022/08/27 05:32:14;;;;;;;10.77;6.20;;;;;;;22.99;100.00;99856.34;5014043;28;20034;-85
2022/08/27 05:35:13;;;;;;;11.00;6.18;;;;;;;23.16;100.00;99848.88;5012792;28;20081;-84
2022/08/27 05:37:46;;;;;;;15.68;6.03;;;;;;;23.25;100.00;99851.09;4999406;28;20058;-84
2022/08/27 05:40:18;;;;;;;10.63;6.20;;;;;;;23.34;100.00;99849.50;5017939;28;20066;-86
2022/08/27 05:45:52;;;;;;;9.82;6.20;;;;;;;24.01;100.00;99855.81;5156652;23;20054;-88
2022/08/27 05:48:30;;;;;;;12.82;5.50;;;;;;;24.59;100.00;99872.78;5013474;28;20065;-90
2022/08/27 05:51:08;;;;;;;17.10;5.53;;;;;;;25.11;100.00;99870.63;4981917;28;20080;-89
2022/08/27 05:53:36;;;;;;;12.55;5.40;;;;;;;25.81;100.00;99874.28;4981528;28;20034;-85
2022/08/27 05:56:21;;;;;;;8.35;5.22;;;;;;;25.56;100.00;99871.63;4997335;28;20042;-84
2022/08/27 06:02:01;;;;;;;7.70;4.85;;;;;;;25.46;100.00;99877.06;4996101;28;20038;-83
2022/08/27 06:04:52;;;;;;;12.10;5.13;;;;;;;25.54;100.00;99879.25;4971873;28;20061;-85
2022/08/27 06:07:54;;;;;;;9.85;5.35;;;;;;;26.39;97.37;99879.97;5013143;28;20069;-85
2022/08/27 06:10:32;;;;;;;9.35;4.70;;;;;;;26.13;98.16;99877.38;4997397;28;20066;-85
2022/08/27 06:13:02;;;;;;;11.70;4.85;;;;;;;26.18;98.57;99877.38;4981490;28;20081;-88
2022/08/27 06:16:18;;;;;;;11.43;4.70;;;;;;;26.12;97.80;99875.75;4998566;28;20039;-88
2022/08/27 06:19:07;;;;;;;8.10;4.47;;;;;;;25.76;100.00;99882.41;4998428;28;20050;-85
2022/08/27 06:21:43;;;;;;;9.38;4.63;;;;;;;25.55;100.00;99880.88;5016690;28;20030;-89
2022/08/27 06:24:58;;;;;;;9.05;4.53;;;;;;;25.39;100.00;99871.91;4991961;28;20050;-89
2022/08/27 06:28:08;;;;;;;10.60;4.85;;;;;;;25.27;100.00;99884.16;5017405;28;20054;-88
2022/08/27 06:30:46;;;;;;;8.90;4.93;;;;;;;25.23;100.00;99889.31;5009764;28;20046;-87
2022/08/27 06:41:39;;;;;;;6.53;4.70;;;;;;;25.16;100.00;99895.00;3233976;26;20088;-91
2022/08/27 06:44:29;;;;;;;;;;;;;;;25.13;100.00;99897.44;4967013;28;20062;-90
2022/08/27 06:47:43;;;;;;;13.02;5.85;;;;;;;25.06;100.00;99895.00;4995305;28;19921;-90
2022/08/27 06:50:44;;;;;;;13.48;5.18;;;;;;;25.07;100.00;99893.94;4986741;28;20143;-89
2022/08/27 06:54:19;;;;;;;14.85;6.40;;;;;;;25.06;100.00;99903.16;4978892;28;20046;-88
2022/08/27 06:56:57;;;;;;;12.10;6.20;;;;;;;25.00;100.00;99901.53;4954022;28;20050;-85
2022/08/27 06:59:44;;;;;;;13.88;7.78;;;;;;;24.87;100.00;99909.38;4965201;28;20055;-87
2022/08/27 07:02:16;;;;;;;13.88;8.52;;;;;;;24.83;100.00;99906.41;4996867;28;20038;-86
2022/08/27 07:05:37;;;;;;;15.80;7.10;;;;;;;24.75;100.00;99909.63;4998785;28;20054;-86
2022/08/27 07:08:24;;;;;;;17.08;6.72;;;;;;;24.75;100.00;99906.94;4999916;28;20041;-86
2022/08/27 07:11:33;;;;;;;13.13;7.00;;;;;;;24.76;100.00;99911.25;4975086;28;20085;-87
2022/08/27 07:25:36;;;;;;;13.02;5.85;;;;;;;25.16;98.77;99921.31;532510;26;20311;-87
2022/08/27 07:31:42;;;;;;;8.47;4.90;;;;;;;25.15;96.45;99920.53;4722518;26;20035;-84
2022/08/27 07:37:50;;;;;;;10.57;5.20;;;;;;;25.38;95.32;99931.88;5135825;23;20030;-87
2022/08/27 07:40:46;;;;;;;18.50;5.78;;;;;;;25.60;92.66;99927.81;4968905;28;20054;-91
2022/08/27 07:46:25;;;;;;;12.70;6.22;;;;;;;26.32;88.52;99928.38;5155797;23;20034;-87
2022/08/27 07:52:55;;;;;;;16.75;6.68;;;;;;;26.51;86.31;99949.22;5017689;28;20134;-87
2022/08/27 07:58:56;;;;;;;8.80;6.80;;;;;;;26.25;86.29;99968.63;3829162;26;20055;-92
2022/08/27 08:01:47;;;;;;;17.58;6.82;;;;;;;26.10;86.99;99974.91;4997014;28;20297;-89
2022/08/27 08:04:50;;;;;;;14.02;8.02;;;;;;;26.01;86.78;99984.72;4980194;28;20035;-89
2022/08/27 08:22:13;;;;;;;14.73;5.22;;;;;;;25.62;79.57;100050.47;2663157;26;20034;-88
2022/08/27 08:28:48;;;;;;;9.90;3.45;;;;;;;25.12;76.09;100051.22;4986341;28;20055;-90
2022/08/27 08:31:27;;;;;;;6.68;3.85;;;;;;;25.02;77.45;100051.19;4972824;28;20061;-89
2022/08/27 08:34:38;;;;;;;13.82;3.38;;;;;;;24.97;78.91;100058.50;4995912;28;20037;-86
2022/08/27 08:38:00;;;;;;;8.68;3.60;;;;;;;24.85;80.62;100050.63;4990505;28;20019;-90
2022/08/27 08:41:33;;;;;;;13.65;4.30;;;;;;;24.77;82.26;100070.09;5105565;23;20085;-88
2022/08/27 08:44:58;;;;;;;8.30;4.68;;;;;;;24.73;85.02;100074.41;5018050;28;20050;-89
2022/08/27 08:48:12;;;;;;;18.50;6.05;;;;;;;24.51;90.64;100058.34;5008105;28;20057;-89
2022/08/27 08:51:25;;;;;;;20.45;10.25;;;;;;;24.47;98.40;100065.38;5016134;28;20050;-90
2022/08/27 08:54:46;;;;;;;25.70;13.45;;;;;;;24.28;100.00;100082.31;4999476;28;20038;-87
2022/08/27 08:57:37;;;;;;;26.40;13.23;;;;;;;24.23;100.00;100101.28;5001574;28;20031;-91
2022/08/27 09:00:36;;;;;;;29.00;10.60;;;;;;;24.23;95.98;100109.41;5002431;28;20046;-90
2022/08/27 09:11:23;;;;;;;11.15;2.83;;;;;;;23.83;91.37;100074.72;5018991;28;20029;-87
2022/08/27 09:22:38;;;;;;;13.68;2.63;;;;;;;23.68;93.77;100105.16;2105359;26;20046;-90
2022/08/27 09:25:39;;;;;;;8.60;2.90;;;;;;;23.55;96.15;100116.41;4996177;28;20042;-90
2022/08/27 09:31:39;;;;;;;14.80;2.40;;;;;;;23.45;95.84;100113.59;4991259;28;20029;-90
2022/08/27 09:34:44;;;;;;;13.48;2.45;;;;;;;23.21;98.73;100098.72;4956523;29;20120;-89
2022/08/27 09:40:48;;;;;;;4.93;2.58;;;;;;;22.19;100.00;100069.63;5041715;23;20054;-86
2022/08/27 09:43:37;;;;;;;9.88;3.13;;;;;;;22.04;100.00;100066.72;5020839;28;20177;-88
2022/08/27 09:46:39;;;;;;;9.38;3.17;;;;;;;22.29;100.00;100080.56;5022116;28;20073;-89
2022/08/27 09:49:49;;;;;;;11.40;4.25;;;;;;;22.89;100.00;100113.00;5016698;28;20086;-87
2022/08/27 10:11:37;;;;;;;9.57;2.70;;;;;;;25.27;90.82;100103.88;6388094;22;20014;-86
2022/08/27 10:29:42;;;;;;;9.88;2.60;;;;;;;26.57;79.72;100129.38;6312981;22;20034;-85
2022/08/27 10:33:10;;;;;;;5.57;2.40;;;;;;;27.72;71.17;100122.56;6313421;22;20003;-88
2022/08/27 10:44:42;;;;;;;2.45;1.48;;;;;;;28.01;65.03;100114.38;6221154;23;20016;-90
2022/08/27 10:47:58;;;;;;;2.40;1.42;;;;;;;28.21;61.98;100103.31;6218153;23;20017;-88
2022/08/27 10:53:52;;;;;;;3.65;1.65;;;;;;;27.79;64.11;100086.00;6280957;22;20043;-85
2022/08/27 10:56:59;;;;;;;2.95;1.30;;;;;;;28.02;61.78;100083.34;6270423;22;20051;-90
2022/08/27 11:00:04;;;;;;;4.82;1.27;;;;;;;27.70;65.34;100083.91;6282859;22;20019;-86
2022/08/27 11:03:20;;;;;;;2.03;1.42;;;;;;;26.97;68.04;100082.22;6256005;22;20003;-88
2022/08/27 11:06:52;;;;;;;8.77;1.73;;;;;;;27.32;67.01;100083.88;6254743;22;20030;-84
2022/08/27 11:10:37;;;;;;;2.83;1.30;;;;;;;27.37;66.94;100081.13;6273725;22;20034;-89
2022/08/27 11:19:51;;;;;;;7.55;1.48;;;;;;;27.18;66.68;100076.34;6325708;22;20030;-85
2022/08/27 11:22:49;;;;;;;2.95;1.60;;;;;;;27.17;68.65;100073.94;6329637;22;20007;-80
2022/08/27 11:26:07;;;;;;;6.82;1.98;;;;;;;27.21;69.63;100070.34;6286307;22;20012;-86
2022/08/27 11:28:57;;;;;;;12.07;1.50;;;;;;;26.93;68.03;100060.19;6301527;22;20021;-81
2022/08/27 11:32:20;;;;;;;3.60;1.50;;;;;;;26.81;68.90;100057.00;6327458;22;20011;-83
2022/08/27 11:35:15;;;;;;;6.45;1.65;;;;;;;27.03;66.10;100057.41;6323357;22;20032;-83
2022/08/27 11:38:20;;;;;;;4.60;1.63;;;;;;;26.90;71.83;100044.44;6335518;22;20027;-85
2022/08/27 11:41:34;;;;;;;3.38;1.45;;;;;;;26.28;70.75;100039.53;6295446;22;20065;-81
2022/08/27 11:44:09;;;;;;;5.15;1.65;;;;;;;26.44;72.25;100024.81;6257984;23;20140;-85
2022/08/27 11:54:44;;;;;;;4.85;1.55;;;;;;;27.37;63.20;100046.56;6274784;22;20043;-91
2022/08/27 11:57:47;;;;;;;1.50;1.20;;;;;;;27.09;65.06;100050.84;6295675;22;20022;-82
2022/08/27 12:09:31;;;;;;;5.57;2.47;;;;;;;26.34;74.05;100053.91;6329955;22;20015;-86
2022/08/27 12:33:55;;;;;;;6.93;3.97;;;;;;;25.39;88.46;100061.84;6287460;22;20016;-81
2022/08/27 12:37:04;;;;;;;9.00;4.10;;;;;;;25.15;90.41;100055.31;6265922;22;20006;-85
2022/08/27 12:42:38;;;;;;;7.75;4.20;;;;;;;25.29;91.14;100061.81;6270522;22;20020;-83
2022/08/27 12:45:51;;;;;;;7.68;3.65;;;;;;;25.42;88.83;100055.06;6267068;23;20071;-83
2022/08/27 12:48:23;;;;;;;11.93;3.85;;;;;;;25.50;87.70;100058.06;6230061;23;20039;-83
2022/08/27 12:51:31;;;;;;;11.70;4.13;;;;;;;25.33;88.59;100052.06;6256495;23;20016;-84
2022/08/27 12:55:10;;;;;;;8.63;4.28;;;;;;;25.25;89.50;100049.09;6208797;23;20031;-82
2022/08/27 12:58:09;;;;;;;10.73;4.13;;;;;;;25.15;89.45;100048.00;6209263;23;20013;-81
2022/08/27 15:32:41;;;;;;;15.60;11.32;;;;;;;26.60;93.05;99922.25;6269188;22;20038;-89
2022/08/27 15:43:40;;;;;;;17.17;11.40;;;;;;;26.05;96.38;99924.13;6304050;22;20070;-91
2022/08/27 15:47:11;;;;;;;15.63;10.48;;;;;;;26.16;95.93;99924.88;6287921;22;20023;-92
2022/08/27 15:50:06;;;;;;;15.18;10.40;;;;;;;26.25;92.75;99923.25;6287872;22;20019;-88
2022/08/27 15:53:07;;;;;;;15.95;10.23;;;;;;;26.17;94.85;99921.13;6297420;22;20031;-91
2022/08/27 15:55:50;;;;;;;;;;;;;;;26.04;95.14;99919.78;6289617;22;20035;-88
2022/08/27 15:58:44;;;;;;;13.40;9.10;;;;;;;26.00;95.26;99916.00;6305139;22;19906;-87
2022/08/27 16:04:34;;;;;;;12.07;8.95;;;;;;;25.98;93.84;99906.50;6298622;22;20010;-90
2022/08/27 16:07:30;;;;;;;11.38;8.18;;;;;;;25.97;94.17;99908.41;6303801;22;19995;-90
2022/08/27 16:10:52;;;;;;;10.63;7.90;;;;;;;25.87;93.85;99903.03;6304391;22;20026;-86
2022/08/27 16:13:45;;;;;;;14.23;7.50;;;;;;;25.96;91.83;99906.78;6286490;22;20008;-89
2022/08/27 16:16:43;;;;;;;11.63;7.07;;;;;;;26.00;92.75;99894.28;6284489;22;20010;-90
2022/08/27 16:19:46;;;;;;;11.88;7.78;;;;;;;25.81;94.27;99901.41;6251764;22;20007;-87
2022/08/27 16:22:21;;;;;;;9.50;7.28;;;;;;;25.83;95.11;99904.66;6288329;22;20019;-88
2022/08/27 16:24:55;;;;;;;12.43;6.20;;;;;;;25.68;95.49;99902.00;6253782;22;20026;-86
2022/08/27 16:27:30;;;;;;;11.68;7.57;;;;;;;25.73;95.53;99903.88;6293771;22;20035;-87
2022/08/27 16:30:22;;;;;;;10.45;7.60;;;;;;;25.81;94.49;99911.47;6301675;22;20016;-88
2022/08/27 16:32:55;;;;;;;10.75;7.57;;;;;;;25.81;93.94;99912.28;6278136;22;20004;-86
2022/08/27 16:35:48;;;;;;;11.57;7.95;;;;;;;25.70;93.60;99914.22;6276168;22;20018;-87
2022/08/27 16:38:41;;;;;;;14.32;7.25;;;;;;;25.78;94.97;99915.56;6302956;22;19995;-87
2022/08/27 16:53:01;;;;;;;12.57;8.32;;;;;;;25.76;94.67;99925.84;6291683;22;20067;-80
2022/08/27 16:55:38;;;;;;;12.65;7.75;;;;;;;25.99;92.64;99930.66;6304209;22;20063;-88
2022/08/27 16:58:40;;;;;;;9.15;6.90;;;;;;;25.80;93.73;99926.94;6264671;22;20047;-84
2022/08/27 17:01:10;;;;;;;8.65;7.32;;;;;;;25.58;95.12;99940.03;6299759;22;20008;-84
2022/08/27 17:03:41;;;;;;;11.60;7.20;;;;;;;25.73;95.83;99936.44;6223550;22;20459;-81
2022/08/27 17:06:14;;;;;;;8.95;7.10;;;;;;;25.57;97.05;99943.81;6273556;22;20026;-82
2022/08/27 17:09:10;;;;;;;12.98;7.43;;;;;;;25.39;98.34;99936.25;6223056;22;20071;-83
2022/08/27 17:11:42;;;;;;;11.18;7.80;;;;;;;25.44;96.11;99933.50;6289173;22;20008;-85
2022/08/27 17:14:27;;;;;;;10.47;7.57;;;;;;;25.44;95.84;99944.34;6286445;22;20062;-82
2022/08/27 17:17:03;;;;;;;10.02;7.47;;;;;;;25.34;97.42;99941.66;6267484;22;20016;-82
2022/08/27 17:19:44;;;;;;;10.63;6.93;;;;;;;25.28;97.12;99942.75;6294152;22;20014;-81
2022/08/27 17:22:18;;;;;;;7.70;6.30;;;;;;;25.11;98.63;99941.13;6266467;22;20089;-81
2022/08/27 17:28:18;;;;;;;9.25;6.53;;;;;;;25.24;97.70;99938.94;6272807;22;20027;-79
2022/08/27 17:30:51;;;;;;;8.63;5.82;;;;;;;25.23;96.94;99937.31;6300344;22;20083;-80
2022/08/27 17:33:58;;;;;;;9.60;5.57;;;;;;;25.11;97.31;99946.56;6249614;22;20019;-81
2022/08/27 17:36:28;;;;;;;7.60;6.00;;;;;;;25.31;95.49;99942.19;6273661;22;20022;-82
2022/08/27 17:39:16;;;;;;;8.48;5.43;;;;;;;25.14;96.44;99951.44;6275196;22;20030;-83
2022/08/27 17:42:09;;;;;;;9.07;6.03;;;;;;;25.04;96.62;99956.03;6302428;22;20012;-82
2022/08/27 17:45:16;;;;;;;9.23;4.88;;;;;;;25.08;97.51;99940.84;6277898;22;20038;-83
2022/08/27 17:47:49;;;;;;;6.43;5.03;;;;;;;25.09;97.37;99948.72;6292307;22;20012;-86
2022/08/27 17:50:29;;;;;;;8.63;5.00;;;;;;;25.16;96.66;99954.69;6271546;22;20072;-84
2022/08/27 17:53:31;;;;;;;9.48;5.25;;;;;;;25.06;96.35;99960.09;6262733;22;20000;-87
2022/08/27 17:56:33;;;;;;;7.75;5.25;;;;;;;24.85;98.29;99953.03;6302443;22;20061;-88
2022/08/27 17:59:09;;;;;;;10.73;4.95;;;;;;;24.85;98.60;99954.94;6301225;22;20016;-87
2022/08/27 18:01:51;;;;;;;6.78;4.97;;;;;;;24.87;98.13;99960.91;6301343;22;20030;-85
2022/08/27 18:04:58;;;;;;;10.15;5.03;;;;;;;24.95;97.13;99969.31;6301620;22;20004;-86
2022/08/27 18:11:16;;;;;;;9.10;5.40;;;;;;;24.72;99.56;99969.81;6300874;22;20063;-84
2022/08/27 18:14:22;;;;;;;7.78;5.38;;;;;;;24.71;99.84;99973.59;6303052;22;20059;-86
2022/08/27 18:17:27;;;;;;;7.63;4.93;;;;;;;24.77;100.00;99977.94;6271312;22;20032;-82
2022/08/27 18:19:57;;;;;;;9.68;5.65;;;;;;;24.70;100.00;99977.38;6303751;22;20008;-80
2022/08/27 18:22:30;;;;;;;7.05;5.55;;;;;;;24.52;100.00;99981.41;6290892;22;20038;-82
2022/08/27 18:25:00;;;;;;;6.65;5.00;;;;;;;24.30;100.00;99977.25;6253314;22;20000;-80
2022/08/27 18:27:51;;;;;;;6.38;5.20;;;;;;;24.40;100.00;99983.50;6304381;22;20016;-82
2022/08/27 18:30:19;;;;;;;6.93;4.70;;;;;;;24.44;100.00;99989.22;6283141;22;20012;-85
2022/08/27 18:33:05;;;;;;;5.47;4.38;;;;;;;24.51;100.00;99989.78;6298934;22;20016;-81
2022/08/27 18:35:36;;;;;;;9.00;4.90;;;;;;;24.51;100.00;99996.03;6301040;22;20011;-83
2022/08/27 18:38:06;;;;;;;8.15;4.72;;;;;;;24.31;100.00;100004.06;6302103;22;20012;-82
2022/08/27 18:41:21;;;;;;;8.50;5.43;;;;;;;24.27;100.00;100002.16;6327849;22;20090;-84
2022/08/27 18:44:27;;;;;;;6.95;4.95;;;;;;;24.41;100.00;100008.72;6304992;22;20019;-84
2022/08/27 18:47:25;;;;;;;8.80;5.22;;;;;;;24.34;100.00;100010.84;6305301;22;20018;-83
2022/08/27 18:50:04;;;;;;;8.35;6.00;;;;;;;24.31;100.00;100006.78;6303483;22;20010;-81
2022/08/27 18:52:38;;;;;;;8.45;5.90;;;;;;;24.27;100.00;100005.66;6298980;22;20090;-83
2022/08/27 18:55:15;;;;;;;6.90;5.65;;;;;;;24.22;100.00;100007.56;6268135;23;20028;-83
2022/08/27 19:01:02;;;;;;;8.95;7.22;;;;;;;23.96;100.00;100018.19;6284050;22;20026;-84
2022/08/27 19:03:53;;;;;;;13.55;7.30;;;;;;;23.85;100.00;100019.22;6319190;22;20003;-82
2022/08/27 19:07:03;;;;;;;9.63;7.30;;;;;;;23.86;100.00;100023.56;6315936;22;20034;-84
2022/08/27 19:10:01;;;;;;;12.93;7.55;;;;;;;23.81;100.00;100028.13;6298762;22;20027;-80
2022/08/27 19:15:58;;;;;;;10.90;8.13;;;;;;;23.74;100.00;100031.06;6303330;22;20019;-82
2022/08/27 19:18:43;;;;;;;9.15;7.88;;;;;;;23.67;100.00;100033.16;6271899;22;20016;-84
2022/08/27 19:21:33;;;;;;;15.95;8.13;;;;;;;23.60;100.00;100033.38;6224317;22;20012;-83
2022/08/27 19:24:42;;;;;;;8.60;7.45;;;;;;;23.62;100.00;100036.66;6245849;23;20070;-83
2022/08/27 19:27:58;;;;;;;12.50;8.00;;;;;;;23.63;100.00;100043.69;6274575;22;20027;-85
2022/08/27 19:30:52;;;;;;;9.68;7.68;;;;;;;23.52;100.00;100046.59;6273435;22;20016;-81
2022/08/27 19:33:30;;;;;;;;;;;;;;;23.64;100.00;100050.75;6273881;22;20008;-83
2022/08/27 19:36:22;;;;;;;;;;;;;;;23.51;100.00;100053.06;6233679;23;19931;-82